sensor_id;sensor_type;location;lat;lon;timestamp;P1;durP1;ratioP1;P2;durP2;ratioP2
15254;SDS011;7730;49.610;11.136;2023-04-25T00:01:17;4.90;;;3.05;;
15254;SDS011;7730;49.610;11.136;2023-04-25T00:03:46;5.78;;;3.00;;
15254;SDS011;7730;49.610;11.136;2023-04-25T00:06:13;5.78;;;3.08;;
15254;SDS011;7730;49.610;11.136;2023-04-25T00:08:40;7.68;;;3.30;;
15254;SDS011;7730;49.610;11.136;2023-04-25T00:11:07;7.40;;;3.72;;
15254;SDS011;7730;49.610;11.136;2023-04-25T00:13:34;5.85;;;3.10;;
15254;SDS011;7730;49.610;11.136;2023-04-25T00:16:01;7.30;;;3.22;;
15254;SDS011;7730;49.610;11.136;2023-04-25T00:18:29;5.95;;;3.00;;
15254;SDS011;7730;49.610;11.136;2023-04-25T00:20:59;5.60;;;3.08;;
15254;SDS011;7730;49.610;11.136;2023-04-25T00:23:26;5.00;;;3.13;;
15254;SDS011;7730;49.610;11.136;2023-04-25T00:25:53;6.15;;;3.13;;
15254;SDS011;7730;49.610;11.136;2023-04-25T00:28:20;7.03;;;3.30;;
15254;SDS011;7730;49.610;11.136;2023-04-25T00:30:47;6.15;;;3.10;;
15254;SDS011;7730;49.610;11.136;2023-04-25T00:33:14;4.82;;;3.08;;
15254;SDS011;7730;49.610;11.136;2023-04-25T00:35:41;6.40;;;3.38;;
15254;SDS011;7730;49.610;11.136;2023-04-25T00:38:10;6.35;;;3.30;;
15254;SDS011;7730;49.610;11.136;2023-04-25T00:40:37;5.75;;;3.38;;
15254;SDS011;7730;49.610;11.136;2023-04-25T00:43:04;6.30;;;3.40;;
15254;SDS011;7730;49.610;11.136;2023-04-25T00:45:31;6.88;;;3.45;;
15254;SDS011;7730;49.610;11.136;2023-04-25T00:47:58;6.78;;;3.30;;
15254;SDS011;7730;49.610;11.136;2023-04-25T00:50:25;6.90;;;3.50;;
15254;SDS011;7730;49.610;11.136;2023-04-25T00:52:52;8.27;;;3.58;;
15254;SDS011;7730;49.610;11.136;2023-04-25T00:55:20;8.48;;;3.83;;
15254;SDS011;7730;49.610;11.136;2023-04-25T00:57:48;6.93;;;3.25;;
15254;SDS011;7730;49.610;11.136;2023-04-25T01:00:16;6.38;;;3.28;;
15254;SDS011;7730;49.610;11.136;2023-04-25T01:02:43;7.03;;;3.38;;
15254;SDS011;7730;49.610;11.136;2023-04-25T01:05:11;5.20;;;3.13;;
15254;SDS011;7730;49.610;11.136;2023-04-25T01:07:38;7.43;;;3.35;;
15254;SDS011;7730;49.610;11.136;2023-04-25T01:10:06;5.78;;;3.33;;
15254;SDS011;7730;49.610;11.136;2023-04-25T01:12:34;7.05;;;3.80;;
15254;SDS011;7730;49.610;11.136;2023-04-25T01:15:01;6.85;;;3.42;;
15254;SDS011;7730;49.610;11.136;2023-04-25T01:17:28;7.80;;;3.78;;
15254;SDS011;7730;49.610;11.136;2023-04-25T01:19:56;7.30;;;3.72;;
15254;SDS011;7730;49.610;11.136;2023-04-25T01:22:25;5.93;;;3.50;;
15254;SDS011;7730;49.610;11.136;2023-04-25T01:24:52;6.75;;;3.30;;
15254;SDS011;7730;49.610;11.136;2023-04-25T01:27:19;6.18;;;3.42;;
15254;SDS011;7730;49.610;11.136;2023-04-25T01:29:46;5.90;;;3.42;;
15254;SDS011;7730;49.610;11.136;2023-04-25T01:32:14;9.18;;;3.60;;
15254;SDS011;7730;49.610;11.136;2023-04-25T01:34:41;8.20;;;3.90;;
15254;SDS011;7730;49.610;11.136;2023-04-25T01:37:08;7.60;;;3.53;;
15254;SDS011;7730;49.610;11.136;2023-04-25T01:39:36;6.47;;;3.50;;
15254;SDS011;7730;49.610;11.136;2023-04-25T01:42:03;5.88;;;3.35;;
15254;SDS011;7730;49.610;11.136;2023-04-25T01:44:30;5.95;;;3.30;;
15254;SDS011;7730;49.610;11.136;2023-04-25T01:46:57;7.55;;;3.92;;
15254;SDS011;7730;49.610;11.136;2023-04-25T01:49:24;6.68;;;3.50;;
15254;SDS011;7730;49.610;11.136;2023-04-25T01:51:51;7.68;;;3.70;;
15254;SDS011;7730;49.610;11.136;2023-04-25T01:54:18;8.70;;;4.15;;
15254;SDS011;7730;49.610;11.136;2023-04-25T01:56:50;9.07;;;3.97;;
15254;SDS011;7730;49.610;11.136;2023-04-25T01:59:18;8.25;;;3.97;;
15254;SDS011;7730;49.610;11.136;2023-04-25T02:01:46;7.68;;;3.83;;
15254;SDS011;7730;49.610;11.136;2023-04-25T02:04:13;8.05;;;3.72;;
15254;SDS011;7730;49.610;11.136;2023-04-25T02:06:40;7.43;;;3.55;;
15254;SDS011;7730;49.610;11.136;2023-04-25T02:09:07;6.05;;;2.97;;
15254;SDS011;7730;49.610;11.136;2023-04-25T02:11:34;6.05;;;3.08;;
15254;SDS011;7730;49.610;11.136;2023-04-25T02:14:03;6.70;;;3.30;;
15254;SDS011;7730;49.610;11.136;2023-04-25T02:16:30;5.95;;;2.95;;
15254;SDS011;7730;49.610;11.136;2023-04-25T02:18:57;6.70;;;2.90;;
15254;SDS011;7730;49.610;11.136;2023-04-25T02:21:25;5.10;;;3.00;;
15254;SDS011;7730;49.610;11.136;2023-04-25T02:23:52;6.03;;;3.05;;
15254;SDS011;7730;49.610;11.136;2023-04-25T02:26:19;6.70;;;3.03;;
15254;SDS011;7730;49.610;11.136;2023-04-25T02:28:46;5.65;;;3.20;;
15254;SDS011;7730;49.610;11.136;2023-04-25T02:31:14;5.85;;;3.00;;
15254;SDS011;7730;49.610;11.136;2023-04-25T02:33:41;6.18;;;3.05;;
15254;SDS011;7730;49.610;11.136;2023-04-25T02:36:08;6.25;;;3.05;;
15254;SDS011;7730;49.610;11.136;2023-04-25T02:38:35;4.43;;;2.83;;
15254;SDS011;7730;49.610;11.136;2023-04-25T02:41:02;5.63;;;2.90;;
15254;SDS011;7730;49.610;11.136;2023-04-25T02:43:29;5.07;;;2.90;;
15254;SDS011;7730;49.610;11.136;2023-04-25T02:45:56;6.63;;;3.15;;
15254;SDS011;7730;49.610;11.136;2023-04-25T02:48:25;6.97;;;3.17;;
15254;SDS011;7730;49.610;11.136;2023-04-25T02:50:52;6.20;;;3.38;;
15254;SDS011;7730;49.610;11.136;2023-04-25T02:53:19;6.68;;;3.78;;
15254;SDS011;7730;49.610;11.136;2023-04-25T02:55:46;8.68;;;4.10;;
15254;SDS011;7730;49.610;11.136;2023-04-25T02:58:13;7.60;;;3.90;;
15254;SDS011;7730;49.610;11.136;2023-04-25T03:00:40;7.90;;;3.97;;
15254;SDS011;7730;49.610;11.136;2023-04-25T03:03:07;6.78;;;3.65;;
15254;SDS011;7730;49.610;11.136;2023-04-25T03:05:36;6.63;;;3.20;;
15254;SDS011;7730;49.610;11.136;2023-04-25T03:08:03;6.53;;;3.10;;
15254;SDS011;7730;49.610;11.136;2023-04-25T03:10:30;5.82;;;3.10;;
15254;SDS011;7730;49.610;11.136;2023-04-25T03:12:57;7.10;;;3.35;;
15254;SDS011;7730;49.610;11.136;2023-04-25T03:15:24;8.40;;;3.20;;
15254;SDS011;7730;49.610;11.136;2023-04-25T03:17:51;5.38;;;3.17;;
15254;SDS011;7730;49.610;11.136;2023-04-25T03:20:18;6.45;;;3.30;;
15254;SDS011;7730;49.610;11.136;2023-04-25T03:22:46;4.88;;;2.80;;
15254;SDS011;7730;49.610;11.136;2023-04-25T03:25:13;6.47;;;3.08;;
15254;SDS011;7730;49.610;11.136;2023-04-25T03:27:41;5.40;;;3.00;;
15254;SDS011;7730;49.610;11.136;2023-04-25T03:30:08;6.90;;;3.03;;
15254;SDS011;7730;49.610;11.136;2023-04-25T03:32:35;6.28;;;3.00;;
15254;SDS011;7730;49.610;11.136;2023-04-25T03:35:02;6.20;;;3.10;;
15254;SDS011;7730;49.610;11.136;2023-04-25T03:37:29;7.10;;;3.55;;
15254;SDS011;7730;49.610;11.136;2023-04-25T03:39:58;7.72;;;3.50;;
15254;SDS011;7730;49.610;11.136;2023-04-25T03:42:25;6.55;;;3.53;;
15254;SDS011;7730;49.610;11.136;2023-04-25T03:44:52;7.30;;;3.50;;
15254;SDS011;7730;49.610;11.136;2023-04-25T03:47:19;6.63;;;3.75;;
15254;SDS011;7730;49.610;11.136;2023-04-25T03:49:46;8.18;;;3.80;;
15254;SDS011;7730;49.610;11.136;2023-04-25T03:52:14;7.47;;;3.40;;
15254;SDS011;7730;49.610;11.136;2023-04-25T03:54:41;8.20;;;3.78;;
15254;SDS011;7730;49.610;11.136;2023-04-25T03:57:09;8.90;;;3.90;;
15254;SDS011;7730;49.610;11.136;2023-04-25T03:59:36;7.13;;;3.70;;
15254;SDS011;7730;49.610;11.136;2023-04-25T04:02:03;8.20;;;3.72;;
15254;SDS011;7730;49.610;11.136;2023-04-25T04:04:30;7.95;;;3.92;;
15254;SDS011;7730;49.610;11.136;2023-04-25T04:06:57;8.80;;;4.05;;
15254;SDS011;7730;49.610;11.136;2023-04-25T04:09:25;8.50;;;4.40;;
15254;SDS011;7730;49.610;11.136;2023-04-25T04:11:52;9.18;;;4.35;;
15254;SDS011;7730;49.610;11.136;2023-04-25T04:14:20;8.18;;;3.95;;
15254;SDS011;7730;49.610;11.136;2023-04-25T04:16:47;7.50;;;4.07;;
15254;SDS011;7730;49.610;11.136;2023-04-25T04:19:14;8.57;;;4.25;;
15254;SDS011;7730;49.610;11.136;2023-04-25T04:21:41;8.32;;;4.30;;
15254;SDS011;7730;49.610;11.136;2023-04-25T04:24:08;8.75;;;4.68;;
15254;SDS011;7730;49.610;11.136;2023-04-25T04:26:35;8.68;;;4.15;;
15254;SDS011;7730;49.610;11.136;2023-04-25T04:29:03;8.65;;;4.35;;
15254;SDS011;7730;49.610;11.136;2023-04-25T04:31:33;9.35;;;4.20;;
15254;SDS011;7730;49.610;11.136;2023-04-25T04:34:00;8.45;;;4.15;;
15254;SDS011;7730;49.610;11.136;2023-04-25T04:36:28;8.20;;;4.40;;
15254;SDS011;7730;49.610;11.136;2023-04-25T04:38:55;10.48;;;4.57;;
15254;SDS011;7730;49.610;11.136;2023-04-25T04:41:23;8.00;;;4.18;;
15254;SDS011;7730;49.610;11.136;2023-04-25T04:43:50;9.07;;;4.07;;
15254;SDS011;7730;49.610;11.136;2023-04-25T04:46:18;9.05;;;4.20;;
15254;SDS011;7730;49.610;11.136;2023-04-25T04:48:46;7.68;;;4.20;;
15254;SDS011;7730;49.610;11.136;2023-04-25T04:51:13;8.60;;;4.40;;
15254;SDS011;7730;49.610;11.136;2023-04-25T04:53:40;7.25;;;4.15;;
15254;SDS011;7730;49.610;11.136;2023-04-25T04:56:07;8.85;;;4.10;;
15254;SDS011;7730;49.610;11.136;2023-04-25T04:58:34;9.05;;;4.30;;
15254;SDS011;7730;49.610;11.136;2023-04-25T05:01:01;8.80;;;4.40;;
15254;SDS011;7730;49.610;11.136;2023-04-25T05:03:28;9.02;;;4.60;;
15254;SDS011;7730;49.610;11.136;2023-04-25T05:05:56;10.18;;;4.53;;
15254;SDS011;7730;49.610;11.136;2023-04-25T05:08:23;9.65;;;4.60;;
15254;SDS011;7730;49.610;11.136;2023-04-25T05:10:50;9.23;;;4.15;;
15254;SDS011;7730;49.610;11.136;2023-04-25T05:13:17;8.32;;;4.18;;
15254;SDS011;7730;49.610;11.136;2023-04-25T05:15:44;14.18;;;5.20;;
15254;SDS011;7730;49.610;11.136;2023-04-25T05:18:11;11.50;;;4.15;;
15254;SDS011;7730;49.610;11.136;2023-04-25T05:20:39;11.35;;;4.20;;
15254;SDS011;7730;49.610;11.136;2023-04-25T05:23:07;11.32;;;4.20;;
15254;SDS011;7730;49.610;11.136;2023-04-25T05:25:34;18.52;;;4.30;;
15254;SDS011;7730;49.610;11.136;2023-04-25T05:28:01;13.15;;;4.10;;
15254;SDS011;7730;49.610;11.136;2023-04-25T05:30:28;14.77;;;3.90;;
15254;SDS011;7730;49.610;11.136;2023-04-25T05:32:55;14.32;;;3.70;;
15254;SDS011;7730;49.610;11.136;2023-04-25T05:35:22;18.88;;;4.82;;
15254;SDS011;7730;49.610;11.136;2023-04-25T05:37:49;13.15;;;3.67;;
15254;SDS011;7730;49.610;11.136;2023-04-25T05:40:17;8.00;;;3.30;;
15254;SDS011;7730;49.610;11.136;2023-04-25T05:42:44;8.63;;;3.58;;
15254;SDS011;7730;49.610;11.136;2023-04-25T05:45:11;5.60;;;2.97;;
15254;SDS011;7730;49.610;11.136;2023-04-25T05:47:38;6.30;;;3.08;;
15254;SDS011;7730;49.610;11.136;2023-04-25T05:50:06;6.22;;;2.85;;
15254;SDS011;7730;49.610;11.136;2023-04-25T05:52:34;4.50;;;3.00;;
15254;SDS011;7730;49.610;11.136;2023-04-25T05:55:01;6.15;;;3.10;;
15254;SDS011;7730;49.610;11.136;2023-04-25T05:57:29;5.70;;;2.90;;
15254;SDS011;7730;49.610;11.136;2023-04-25T05:59:56;5.25;;;2.80;;
15254;SDS011;7730;49.610;11.136;2023-04-25T06:02:24;4.65;;;2.70;;
15254;SDS011;7730;49.610;11.136;2023-04-25T06:04:51;8.00;;;3.33;;
15254;SDS011;7730;49.610;11.136;2023-04-25T06:07:18;8.40;;;3.35;;
15254;SDS011;7730;49.610;11.136;2023-04-25T06:09:45;6.38;;;3.22;;
15254;SDS011;7730;49.610;11.136;2023-04-25T06:12:12;10.48;;;3.60;;
15254;SDS011;7730;49.610;11.136;2023-04-25T06:14:41;8.13;;;3.50;;
15254;SDS011;7730;49.610;11.136;2023-04-25T06:17:08;7.90;;;3.58;;
15254;SDS011;7730;49.610;11.136;2023-04-25T06:19:35;8.55;;;3.78;;
15254;SDS011;7730;49.610;11.136;2023-04-25T06:22:02;7.65;;;3.95;;
15254;SDS011;7730;49.610;11.136;2023-04-25T06:24:29;9.32;;;3.65;;
15254;SDS011;7730;49.610;11.136;2023-04-25T06:26:56;8.55;;;3.90;;
15254;SDS011;7730;49.610;11.136;2023-04-25T06:29:23;9.18;;;4.05;;
15254;SDS011;7730;49.610;11.136;2023-04-25T06:31:51;8.77;;;4.05;;
15254;SDS011;7730;49.610;11.136;2023-04-25T06:34:18;10.75;;;4.47;;
15254;SDS011;7730;49.610;11.136;2023-04-25T06:36:45;11.25;;;4.43;;
15254;SDS011;7730;49.610;11.136;2023-04-25T06:39:12;15.43;;;5.00;;
15254;SDS011;7730;49.610;11.136;2023-04-25T06:41:39;9.85;;;4.53;;
15254;SDS011;7730;49.610;11.136;2023-04-25T06:44:06;11.23;;;4.93;;
15254;SDS011;7730;49.610;11.136;2023-04-25T06:46:33;11.85;;;5.07;;
15254;SDS011;7730;49.610;11.136;2023-04-25T06:49:02;10.48;;;4.97;;
15254;SDS011;7730;49.610;11.136;2023-04-25T06:51:29;13.32;;;5.50;;
15254;SDS011;7730;49.610;11.136;2023-04-25T06:53:56;9.65;;;4.80;;
15254;SDS011;7730;49.610;11.136;2023-04-25T06:56:23;15.00;;;5.07;;
15254;SDS011;7730;49.610;11.136;2023-04-25T06:58:50;17.15;;;5.47;;
15254;SDS011;7730;49.610;11.136;2023-04-25T07:01:17;12.18;;;5.18;;
15254;SDS011;7730;49.610;11.136;2023-04-25T07:03:44;13.80;;;5.88;;
15254;SDS011;7730;49.610;11.136;2023-04-25T07:06:13;12.05;;;5.90;;
15254;SDS011;7730;49.610;11.136;2023-04-25T07:08:40;12.23;;;5.55;;
15254;SDS011;7730;49.610;11.136;2023-04-25T07:11:07;12.07;;;6.05;;
15254;SDS011;7730;49.610;11.136;2023-04-25T07:13:34;10.90;;;5.53;;
15254;SDS011;7730;49.610;11.136;2023-04-25T07:16:01;17.70;;;6.05;;
15254;SDS011;7730;49.610;11.136;2023-04-25T07:18:28;11.00;;;5.13;;
15254;SDS011;7730;49.610;11.136;2023-04-25T07:20:55;11.90;;;5.55;;
15254;SDS011;7730;49.610;11.136;2023-04-25T07:23:24;10.63;;;5.15;;
15254;SDS011;7730;49.610;11.136;2023-04-25T07:25:51;9.15;;;4.60;;
15254;SDS011;7730;49.610;11.136;2023-04-25T07:28:18;13.00;;;5.05;;
15254;SDS011;7730;49.610;11.136;2023-04-25T07:30:45;9.02;;;4.15;;
15254;SDS011;7730;49.610;11.136;2023-04-25T07:33:12;7.75;;;3.90;;
15254;SDS011;7730;49.610;11.136;2023-04-25T07:35:39;8.82;;;3.88;;
15254;SDS011;7730;49.610;11.136;2023-04-25T07:38:06;8.68;;;4.05;;
15254;SDS011;7730;49.610;11.136;2023-04-25T07:40:36;9.13;;;3.70;;
15254;SDS011;7730;49.610;11.136;2023-04-25T07:43:03;10.68;;;4.30;;
15254;SDS011;7730;49.610;11.136;2023-04-25T07:45:30;8.63;;;3.60;;
15254;SDS011;7730;49.610;11.136;2023-04-25T07:47:57;8.95;;;3.70;;
15254;SDS011;7730;49.610;11.136;2023-04-25T07:50:24;8.65;;;3.83;;
15254;SDS011;7730;49.610;11.136;2023-04-25T07:52:51;7.85;;;3.70;;
15254;SDS011;7730;49.610;11.136;2023-04-25T07:55:18;7.55;;;3.67;;
15254;SDS011;7730;49.610;11.136;2023-04-25T07:57:47;8.27;;;3.80;;
15254;SDS011;7730;49.610;11.136;2023-04-25T08:00:14;10.10;;;3.85;;
15254;SDS011;7730;49.610;11.136;2023-04-25T08:02:41;9.00;;;3.85;;
15254;SDS011;7730;49.610;11.136;2023-04-25T08:05:08;8.27;;;3.80;;
15254;SDS011;7730;49.610;11.136;2023-04-25T08:07:39;8.35;;;3.90;;
15254;SDS011;7730;49.610;11.136;2023-04-25T08:10:07;11.23;;;4.00;;
15254;SDS011;7730;49.610;11.136;2023-04-25T08:12:34;8.43;;;3.67;;
15254;SDS011;7730;49.610;11.136;2023-04-25T08:15:03;8.57;;;4.00;;
15254;SDS011;7730;49.610;11.136;2023-04-25T08:17:30;9.77;;;4.00;;
15254;SDS011;7730;49.610;11.136;2023-04-25T08:19:57;8.63;;;3.95;;
15254;SDS011;7730;49.610;11.136;2023-04-25T08:22:24;8.63;;;4.10;;
15254;SDS011;7730;49.610;11.136;2023-04-25T08:24:51;10.98;;;4.03;;
15254;SDS011;7730;49.610;11.136;2023-04-25T08:27:18;9.45;;;4.03;;
15254;SDS011;7730;49.610;11.136;2023-04-25T08:29:45;9.63;;;4.00;;
15254;SDS011;7730;49.610;11.136;2023-04-25T08:32:14;9.75;;;4.13;;
15254;SDS011;7730;49.610;11.136;2023-04-25T08:34:41;8.93;;;4.32;;
15254;SDS011;7730;49.610;11.136;2023-04-25T08:37:09;8.52;;;4.10;;
15254;SDS011;7730;49.610;11.136;2023-04-25T08:39:36;10.15;;;4.20;;
15254;SDS011;7730;49.610;11.136;2023-04-25T08:42:05;10.63;;;4.35;;
15254;SDS011;7730;49.610;11.136;2023-04-25T08:44:32;10.48;;;4.40;;
15254;SDS011;7730;49.610;11.136;2023-04-25T08:47:00;9.02;;;4.20;;
15254;SDS011;7730;49.610;11.136;2023-04-25T08:49:29;10.20;;;4.55;;
15254;SDS011;7730;49.610;11.136;2023-04-25T08:51:58;11.27;;;5.00;;
15254;SDS011;7730;49.610;11.136;2023-04-25T08:54:26;8.40;;;4.45;;
15254;SDS011;7730;49.610;11.136;2023-04-25T08:56:55;10.40;;;4.60;;
15254;SDS011;7730;49.610;11.136;2023-04-25T08:59:23;11.43;;;5.13;;
15254;SDS011;7730;49.610;11.136;2023-04-25T09:01:50;10.27;;;4.40;;
15254;SDS011;7730;49.610;11.136;2023-04-25T09:04:17;11.00;;;4.55;;
15254;SDS011;7730;49.610;11.136;2023-04-25T09:06:46;10.50;;;4.45;;
15254;SDS011;7730;49.610;11.136;2023-04-25T09:09:13;8.85;;;4.10;;
15254;SDS011;7730;49.610;11.136;2023-04-25T09:11:40;9.95;;;4.40;;
15254;SDS011;7730;49.610;11.136;2023-04-25T09:14:11;12.05;;;4.97;;
15254;SDS011;7730;49.610;11.136;2023-04-25T09:19:20;9.85;;;4.68;;
15254;SDS011;7730;49.610;11.136;2023-04-25T09:21:50;9.45;;;4.90;;
15254;SDS011;7730;49.610;11.136;2023-04-25T09:24:18;10.75;;;4.30;;
15254;SDS011;7730;49.610;11.136;2023-04-25T09:26:46;9.65;;;4.60;;
15254;SDS011;7730;49.610;11.136;2023-04-25T09:29:13;10.38;;;4.50;;
15254;SDS011;7730;49.610;11.136;2023-04-25T09:31:40;10.65;;;4.78;;
15254;SDS011;7730;49.610;11.136;2023-04-25T09:34:07;8.95;;;4.30;;
15254;SDS011;7730;49.610;11.136;2023-04-25T09:36:36;10.40;;;4.22;;
15254;SDS011;7730;49.610;11.136;2023-04-25T09:39:05;8.30;;;3.90;;
15254;SDS011;7730;49.610;11.136;2023-04-25T09:41:41;9.35;;;3.92;;
15254;SDS011;7730;49.610;11.136;2023-04-25T09:44:08;9.35;;;3.67;;
15254;SDS011;7730;49.610;11.136;2023-04-25T09:46:35;8.70;;;3.75;;
15254;SDS011;7730;49.610;11.136;2023-04-25T09:49:06;9.13;;;3.85;;
15254;SDS011;7730;49.610;11.136;2023-04-25T09:51:33;9.13;;;3.40;;
15254;SDS011;7730;49.610;11.136;2023-04-25T09:54:00;8.88;;;3.80;;
15254;SDS011;7730;49.610;11.136;2023-04-25T09:56:28;6.75;;;3.28;;
15254;SDS011;7730;49.610;11.136;2023-04-25T09:58:56;9.85;;;3.30;;
15254;SDS011;7730;49.610;11.136;2023-04-25T10:01:23;7.18;;;3.30;;
15254;SDS011;7730;49.610;11.136;2023-04-25T10:03:50;5.55;;;2.35;;
15254;SDS011;7730;49.610;11.136;2023-04-25T10:06:19;10.57;;;2.30;;
15254;SDS011;7730;49.610;11.136;2023-04-25T10:08:46;4.18;;;2.20;;
15254;SDS011;7730;49.610;11.136;2023-04-25T10:11:16;4.03;;;1.80;;
15254;SDS011;7730;49.610;11.136;2023-04-25T10:13:45;4.38;;;1.90;;
15254;SDS011;7730;49.610;11.136;2023-04-25T10:16:12;6.13;;;2.30;;
15254;SDS011;7730;49.610;11.136;2023-04-25T10:18:41;4.70;;;2.10;;
15254;SDS011;7730;49.610;11.136;2023-04-25T10:21:08;4.88;;;1.80;;
15254;SDS011;7730;49.610;11.136;2023-04-25T10:23:35;8.52;;;2.38;;
15254;SDS011;7730;49.610;11.136;2023-04-25T10:26:03;4.32;;;2.05;;
15254;SDS011;7730;49.610;11.136;2023-04-25T10:28:30;6.20;;;2.20;;
15254;SDS011;7730;49.610;11.136;2023-04-25T10:31:19;9.45;;;2.00;;
15254;SDS011;7730;49.610;11.136;2023-04-25T10:33:46;5.15;;;2.20;;
15254;SDS011;7730;49.610;11.136;2023-04-25T10:36:13;8.32;;;3.00;;
15254;SDS011;7730;49.610;11.136;2023-04-25T10:38:41;8.10;;;2.90;;
15254;SDS011;7730;49.610;11.136;2023-04-25T10:41:09;8.88;;;3.53;;
15254;SDS011;7730;49.610;11.136;2023-04-25T10:43:37;14.57;;;5.85;;
15254;SDS011;7730;49.610;11.136;2023-04-25T10:48:50;11.13;;;4.10;;
15254;SDS011;7730;49.610;11.136;2023-04-25T10:51:21;12.98;;;3.47;;
15254;SDS011;7730;49.610;11.136;2023-04-25T10:53:59;6.22;;;2.83;;
15254;SDS011;7730;49.610;11.136;2023-04-25T10:56:26;9.57;;;3.22;;
15254;SDS011;7730;49.610;11.136;2023-04-25T10:59:02;7.28;;;2.85;;
15254;SDS011;7730;49.610;11.136;2023-04-25T11:01:36;7.45;;;2.80;;
15254;SDS011;7730;49.610;11.136;2023-04-25T11:04:04;7.88;;;2.60;;
15254;SDS011;7730;49.610;11.136;2023-04-25T11:06:34;4.07;;;2.10;;
15254;SDS011;7730;49.610;11.136;2023-04-25T11:09:08;5.90;;;2.10;;
15254;SDS011;7730;49.610;11.136;2023-04-25T11:11:38;4.32;;;2.00;;
15254;SDS011;7730;49.610;11.136;2023-04-25T11:14:05;5.82;;;2.17;;
15254;SDS011;7730;49.610;11.136;2023-04-25T11:16:32;5.82;;;2.00;;
15254;SDS011;7730;49.610;11.136;2023-04-25T11:19:01;6.82;;;1.90;;
15254;SDS011;7730;49.610;11.136;2023-04-25T11:21:30;5.00;;;1.80;;
15254;SDS011;7730;49.610;11.136;2023-04-25T11:23:57;3.10;;;1.70;;
15254;SDS011;7730;49.610;11.136;2023-04-25T11:26:24;4.28;;;1.75;;
15254;SDS011;7730;49.610;11.136;2023-04-25T11:28:51;4.93;;;1.90;;
15254;SDS011;7730;49.610;11.136;2023-04-25T11:31:20;5.40;;;2.00;;
15254;SDS011;7730;49.610;11.136;2023-04-25T11:33:47;7.97;;;2.42;;
15254;SDS011;7730;49.610;11.136;2023-04-25T11:36:14;5.10;;;2.03;;
15254;SDS011;7730;49.610;11.136;2023-04-25T11:38:42;6.50;;;1.95;;
15254;SDS011;7730;49.610;11.136;2023-04-25T11:41:09;2.40;;;1.60;;
15254;SDS011;7730;49.610;11.136;2023-04-25T11:43:37;3.45;;;1.50;;
15254;SDS011;7730;49.610;11.136;2023-04-25T11:46:06;3.50;;;1.60;;
15254;SDS011;7730;49.610;11.136;2023-04-25T11:48:36;3.13;;;1.63;;
15254;SDS011;7730;49.610;11.136;2023-04-25T11:51:03;5.45;;;1.65;;
15254;SDS011;7730;49.610;11.136;2023-04-25T11:53:30;4.13;;;1.65;;
15254;SDS011;7730;49.610;11.136;2023-04-25T11:55:59;3.53;;;1.83;;
15254;SDS011;7730;49.610;11.136;2023-04-25T11:58:26;1.70;;;1.40;;
15254;SDS011;7730;49.610;11.136;2023-04-25T12:00:53;1.45;;;1.27;;
15254;SDS011;7730;49.610;11.136;2023-04-25T12:03:23;2.78;;;1.20;;
15254;SDS011;7730;49.610;11.136;2023-04-25T12:05:52;4.70;;;1.60;;
15254;SDS011;7730;49.610;11.136;2023-04-25T12:08:19;2.28;;;1.40;;
15254;SDS011;7730;49.610;11.136;2023-04-25T12:10:46;3.95;;;1.50;;
15254;SDS011;7730;49.610;11.136;2023-04-25T12:13:21;2.92;;;1.60;;
15254;SDS011;7730;49.610;11.136;2023-04-25T12:15:53;2.47;;;1.55;;
15254;SDS011;7730;49.610;11.136;2023-04-25T12:18:24;3.90;;;1.70;;
15254;SDS011;7730;49.610;11.136;2023-04-25T12:20:52;4.40;;;1.80;;
15254;SDS011;7730;49.610;11.136;2023-04-25T12:23:24;3.40;;;1.80;;
15254;SDS011;7730;49.610;11.136;2023-04-25T12:25:52;3.10;;;1.65;;
15254;SDS011;7730;49.610;11.136;2023-04-25T12:28:19;1.90;;;1.60;;
15254;SDS011;7730;49.610;11.136;2023-04-25T12:30:56;3.67;;;1.70;;
15254;SDS011;7730;49.610;11.136;2023-04-25T12:33:23;3.40;;;1.75;;
15254;SDS011;7730;49.610;11.136;2023-04-25T12:35:51;4.05;;;1.77;;
15254;SDS011;7730;49.610;11.136;2023-04-25T12:38:22;4.78;;;1.55;;
15254;SDS011;7730;49.610;11.136;2023-04-25T12:40:49;2.28;;;1.70;;
15254;SDS011;7730;49.610;11.136;2023-04-25T12:43:16;6.85;;;1.90;;
15254;SDS011;7730;49.610;11.136;2023-04-25T12:45:43;2.30;;;1.58;;
15254;SDS011;7730;49.610;11.136;2023-04-25T12:48:11;4.63;;;1.80;;
15254;SDS011;7730;49.610;11.136;2023-04-25T12:50:38;13.40;;;2.28;;
15254;SDS011;7730;49.610;11.136;2023-04-25T12:53:06;4.10;;;1.95;;
15254;SDS011;7730;49.610;11.136;2023-04-25T12:55:33;2.53;;;1.75;;
15254;SDS011;7730;49.610;11.136;2023-04-25T12:58:00;2.00;;;1.50;;
15254;SDS011;7730;49.610;11.136;2023-04-25T13:00:28;1.98;;;1.70;;
15254;SDS011;7730;49.610;11.136;2023-04-25T13:02:55;2.65;;;1.73;;
15254;SDS011;7730;49.610;11.136;2023-04-25T13:05:23;7.72;;;2.20;;
15254;SDS011;7730;49.610;11.136;2023-04-25T13:07:50;3.75;;;1.98;;
15254;SDS011;7730;49.610;11.136;2023-04-25T13:10:17;7.43;;;2.20;;
15254;SDS011;7730;49.610;11.136;2023-04-25T13:12:45;4.38;;;2.00;;
15254;SDS011;7730;49.610;11.136;2023-04-25T13:15:12;3.45;;;2.08;;
15254;SDS011;7730;49.610;11.136;2023-04-25T13:17:40;4.55;;;1.90;;
15254;SDS011;7730;49.610;11.136;2023-04-25T13:20:08;4.72;;;1.95;;
15254;SDS011;7730;49.610;11.136;2023-04-25T13:22:36;4.05;;;2.13;;
15254;SDS011;7730;49.610;11.136;2023-04-25T13:25:04;3.78;;;2.10;;
15254;SDS011;7730;49.610;11.136;2023-04-25T13:27:31;5.07;;;2.17;;
15254;SDS011;7730;49.610;11.136;2023-04-25T13:29:59;4.75;;;2.10;;
15254;SDS011;7730;49.610;11.136;2023-04-25T13:32:26;5.53;;;2.00;;
15254;SDS011;7730;49.610;11.136;2023-04-25T13:34:53;5.20;;;2.10;;
15254;SDS011;7730;49.610;11.136;2023-04-25T13:37:20;3.53;;;2.10;;
15254;SDS011;7730;49.610;11.136;2023-04-25T13:39:50;6.20;;;2.25;;
15254;SDS011;7730;49.610;11.136;2023-04-25T13:42:18;3.60;;;2.00;;
15254;SDS011;7730;49.610;11.136;2023-04-25T13:44:46;3.90;;;1.80;;
15254;SDS011;7730;49.610;11.136;2023-04-25T13:47:13;3.92;;;2.28;;
15254;SDS011;7730;49.610;11.136;2023-04-25T13:49:40;4.07;;;2.00;;
15254;SDS011;7730;49.610;11.136;2023-04-25T13:52:07;4.00;;;2.17;;
15254;SDS011;7730;49.610;11.136;2023-04-25T13:54:34;5.07;;;2.13;;
15254;SDS011;7730;49.610;11.136;2023-04-25T13:57:02;2.70;;;1.90;;
15254;SDS011;7730;49.610;11.136;2023-04-25T13:59:30;6.63;;;2.25;;
15254;SDS011;7730;49.610;11.136;2023-04-25T14:01:57;4.35;;;2.10;;
15254;SDS011;7730;49.610;11.136;2023-04-25T14:04:24;5.13;;;2.20;;
15254;SDS011;7730;49.610;11.136;2023-04-25T14:06:52;5.07;;;2.10;;
15254;SDS011;7730;49.610;11.136;2023-04-25T14:09:20;5.78;;;2.28;;
15254;SDS011;7730;49.610;11.136;2023-04-25T14:11:50;5.30;;;2.17;;
15254;SDS011;7730;49.610;11.136;2023-04-25T14:14:18;4.68;;;2.15;;
15254;SDS011;7730;49.610;11.136;2023-04-25T14:16:46;5.35;;;2.38;;
15254;SDS011;7730;49.610;11.136;2023-04-25T14:19:13;6.63;;;2.40;;
15254;SDS011;7730;49.610;11.136;2023-04-25T14:21:41;4.65;;;2.20;;
15254;SDS011;7730;49.610;11.136;2023-04-25T14:24:08;5.90;;;2.30;;
15254;SDS011;7730;49.610;11.136;2023-04-25T14:26:35;3.63;;;2.10;;
15254;SDS011;7730;49.610;11.136;2023-04-25T14:29:02;6.72;;;2.40;;
15254;SDS011;7730;49.610;11.136;2023-04-25T14:31:31;4.35;;;2.47;;
15254;SDS011;7730;49.610;11.136;2023-04-25T14:33:58;5.10;;;2.38;;
15254;SDS011;7730;49.610;11.136;2023-04-25T14:36:25;5.53;;;2.40;;
15254;SDS011;7730;49.610;11.136;2023-04-25T14:38:52;7.13;;;2.60;;
15254;SDS011;7730;49.610;11.136;2023-04-25T14:41:20;6.38;;;2.55;;
15254;SDS011;7730;49.610;11.136;2023-04-25T14:43:48;6.15;;;2.53;;
15254;SDS011;7730;49.610;11.136;2023-04-25T14:46:15;4.32;;;2.20;;
15254;SDS011;7730;49.610;11.136;2023-04-25T14:48:43;5.07;;;2.50;;
15254;SDS011;7730;49.610;11.136;2023-04-25T14:51:10;3.70;;;2.50;;
15254;SDS011;7730;49.610;11.136;2023-04-25T14:53:37;7.13;;;2.63;;